Weather at Rainbow Air Heliport

Public forecast

Using degrees Fahrenheit for public forecast. Weather courtesy of forecast.io.

Closest aviation weather report (METAR) to Rainbow Air Heliport

Closest report is Niagara Falls International Airport, 5.2 nm (9.6 km) ENE. Retrieved 2020/09/23 05:53 UTC (11 minutes ago):

KIAG 230553Z AUTO 25008KT 10SM CLR 14/10 A2997 RMK AO2 SLP148 T01440100 10161 20144 58012

Closest aviation forecast (TAF) to Rainbow Air Heliport

Closest forecast is Niagara Falls International Airport, 5.2 nm (9.6 km) ENE. Retrieved 2020/09/23 06:36 UTC (0 seconds ago):

TAF KIAG 230533Z 2306/2406 24011KT P6SM BKN050 FM231100 25008KT P6SM SKC FM231700 28011G17KT P6SM SKC FM232300 25008KT P6SM SKC